createdAt,value
2018-02-03T00:00:46.469Z,14.93
2018-02-03T00:03:13.103Z,15.15
2018-02-03T00:05:39.717Z,14.52
2018-02-03T00:08:06.362Z,16.87
2018-02-03T00:10:32.986Z,13.48
2018-02-03T00:12:59.600Z,15.10
2018-02-03T00:15:26.220Z,13.88
2018-02-03T00:17:52.831Z,14.32
2018-02-03T00:20:19.496Z,13.95
2018-02-03T00:22:46.103Z,20.05
2018-02-03T00:25:12.731Z,13.82
2018-02-03T00:27:39.337Z,14.68
2018-02-03T00:30:05.970Z,14.85
2018-02-03T00:32:32.577Z,14.63
2018-02-03T00:34:59.205Z,13.95
2018-02-03T00:37:25.931Z,13.68
2018-02-03T00:39:52.564Z,13.20
2018-02-03T00:42:19.181Z,15.60
2018-02-03T00:44:45.887Z,15.55
2018-02-03T00:47:12.589Z,14.85
2018-02-03T00:49:39.225Z,18.25
2018-02-03T00:52:05.865Z,14.15
2018-02-03T00:54:32.498Z,14.70
2018-02-03T00:56:59.141Z,14.57
2018-02-03T00:59:25.825Z,13.68
2018-02-03T01:01:52.441Z,14.60
2018-02-03T01:04:19.166Z,14.43
2018-02-03T01:06:45.846Z,12.93
2018-02-03T01:09:12.540Z,14.27
2018-02-03T01:11:39.166Z,16.05
2018-02-03T01:14:05.822Z,14.93
2018-02-03T01:16:32.461Z,14.25
2018-02-03T01:18:59.101Z,14.60
2018-02-03T01:21:25.725Z,12.32
2018-02-03T01:23:52.377Z,13.73
2018-02-03T01:26:19.017Z,13.62
2018-02-03T01:28:45.657Z,16.20
2018-02-03T01:31:12.282Z,14.45
2018-02-03T01:33:38.897Z,15.60
2018-02-03T01:36:05.529Z,15.70
2018-02-03T01:38:32.140Z,13.68
2018-02-03T01:40:58.769Z,13.07
2018-02-03T01:43:25.494Z,13.50
2018-02-03T01:45:52.106Z,15.65
2018-02-03T01:48:18.737Z,13.98
2018-02-03T01:50:45.350Z,13.55
2018-02-03T01:53:11.973Z,14.10
2018-02-03T01:55:38.688Z,13.40
2018-02-03T01:58:05.313Z,14.20
2018-02-03T02:00:31.925Z,14.70
2018-02-03T02:02:58.713Z,14.00
2018-02-03T02:05:25.269Z,13.88
2018-02-03T02:07:51.924Z,14.80
2018-02-03T02:10:18.532Z,13.70
2018-02-03T02:12:45.261Z,13.77
2018-02-03T02:15:11.901Z,13.57
2018-02-03T02:17:38.525Z,14.55
2018-02-03T02:20:05.138Z,13.25
2018-02-03T02:22:31.771Z,12.95
2018-02-03T02:24:58.381Z,13.13
2018-02-03T02:27:25.097Z,13.35
2018-02-03T02:29:51.718Z,12.68
2018-02-03T02:32:18.350Z,14.18
2018-02-03T02:34:45.057Z,13.85
2018-02-03T02:37:11.664Z,13.00
2018-02-03T02:39:38.384Z,14.20
2018-02-03T02:42:04.998Z,12.48
2018-02-03T02:44:31.621Z,15.23
2018-02-03T02:46:58.242Z,13.50
2018-02-03T02:49:24.870Z,13.70
2018-02-03T02:51:51.482Z,14.65
2018-02-03T02:54:18.106Z,14.20
2018-02-03T02:56:44.721Z,16.50
2018-02-03T02:59:11.345Z,13.48
2018-02-03T03:01:37.953Z,15.05
2018-02-03T03:04:04.572Z,13.55
2018-02-03T03:06:31.220Z,13.90
2018-02-03T03:08:57.841Z,14.45
2018-02-03T03:11:24.452Z,13.95
2018-02-03T03:13:51.078Z,13.98
2018-02-03T03:16:17.777Z,18.12
2018-02-03T03:18:44.401Z,13.45
2018-02-03T03:21:11.017Z,13.98
2018-02-03T03:23:37.692Z,14.90
2018-02-03T03:26:04.316Z,13.90
2018-02-03T03:28:30.934Z,14.27
2018-02-03T03:30:57.609Z,13.55
2018-02-03T03:33:24.250Z,14.98
2018-02-03T03:35:50.874Z,13.05
2018-02-03T03:38:17.493Z,13.82
2018-02-03T03:40:44.118Z,19.10
2018-02-03T03:43:10.812Z,13.50
2018-02-03T03:45:37.430Z,14.70
2018-02-03T03:48:04.127Z,19.58
2018-02-03T03:50:30.745Z,15.00
2018-02-03T03:52:57.357Z,12.63
2018-02-03T03:55:23.990Z,14.25
2018-02-03T03:57:50.610Z,14.02
2018-02-03T04:00:17.245Z,14.52
2018-02-03T04:02:43.858Z,13.15
2018-02-03T04:05:10.557Z,14.30
2018-02-03T04:07:37.186Z,14.55
2018-02-03T04:10:03.809Z,13.65
2018-02-03T04:12:30.414Z,14.05
2018-02-03T04:14:57.029Z,13.13
2018-02-03T04:17:23.694Z,14.90
2018-02-03T04:19:50.302Z,13.20
2018-02-03T04:22:16.920Z,14.68
2018-02-03T04:24:43.565Z,14.20
2018-02-03T04:27:10.251Z,14.18
2018-02-03T04:29:36.950Z,14.85
2018-02-03T04:32:03.595Z,13.95
2018-02-03T04:34:30.209Z,13.57
2018-02-03T04:36:56.842Z,13.15
2018-02-03T04:39:23.448Z,13.62
2018-02-03T04:41:50.144Z,14.82
2018-02-03T04:44:16.785Z,13.40
2018-02-03T04:46:43.424Z,16.08
2018-02-03T04:49:10.030Z,14.70
2018-02-03T04:51:36.657Z,14.75
2018-02-03T04:54:03.269Z,14.48
2018-02-03T04:56:29.885Z,19.02
2018-02-03T04:58:56.497Z,19.35
2018-02-03T05:01:23.109Z,15.82
2018-02-03T05:03:49.733Z,16.45
2018-02-03T05:06:16.346Z,17.25
2018-02-03T05:08:42.969Z,15.40
2018-02-03T05:11:09.580Z,16.08
2018-02-03T05:13:36.213Z,16.05
2018-02-03T05:16:02.818Z,16.52
2018-02-03T05:18:29.442Z,15.27
2018-02-03T05:20:56.165Z,18.10
2018-02-03T05:23:22.805Z,15.45
2018-02-03T05:25:49.422Z,14.95
2018-02-03T05:28:16.050Z,16.75
2018-02-03T05:30:42.661Z,16.98
2018-02-03T05:33:09.405Z,19.30
2018-02-03T05:35:36.145Z,16.58
2018-02-03T05:38:02.762Z,17.60
2018-02-03T05:40:29.373Z,15.82
2018-02-03T05:42:56.001Z,16.35
2018-02-03T05:45:25.070Z,15.63
2018-02-03T05:47:51.694Z,13.98
2018-02-03T05:50:18.307Z,15.23
2018-02-03T05:52:45.180Z,16.08
2018-02-03T05:55:11.869Z,16.42
2018-02-03T05:57:38.519Z,18.10
2018-02-03T06:00:05.158Z,17.45
2018-02-03T06:02:31.828Z,15.25
2018-02-03T06:04:58.454Z,16.10
2018-02-03T06:07:25.066Z,16.00
2018-02-03T06:09:51.845Z,13.90
2018-02-03T06:12:18.562Z,15.45
2018-02-03T06:14:45.343Z,14.68
2018-02-03T06:17:12.045Z,16.30
2018-02-03T06:19:38.795Z,15.63
2018-02-03T06:22:05.566Z,15.93
2018-02-03T06:24:32.351Z,15.38
2018-02-03T06:26:58.990Z,15.57
2018-02-03T06:29:25.750Z,15.32
2018-02-03T06:31:52.941Z,14.75
2018-02-03T06:34:19.681Z,15.52
2018-02-03T06:36:47.178Z,17.12
2018-02-03T06:39:13.903Z,16.10
2018-02-03T06:41:40.834Z,18.27
2018-02-03T06:44:07.467Z,15.70
2018-02-03T06:46:34.085Z,16.17
2018-02-03T06:49:00.697Z,17.33
2018-02-03T06:51:27.336Z,17.15
2018-02-03T06:53:53.985Z,16.25
2018-02-03T06:56:20.622Z,16.20
2018-02-03T06:58:47.233Z,17.92
2018-02-03T07:01:13.854Z,16.65
2018-02-03T07:03:40.469Z,15.60
2018-02-03T07:06:07.089Z,17.90
2018-02-03T07:08:33.757Z,17.35
2018-02-03T07:11:00.376Z,16.42
2018-02-03T07:13:26.997Z,18.10
2018-02-03T07:15:53.617Z,18.17
2018-02-03T07:18:20.233Z,18.58
2018-02-03T07:20:46.862Z,18.80
2018-02-03T07:23:13.546Z,18.70
2018-02-03T07:25:40.173Z,17.62
2018-02-03T07:28:06.785Z,17.85
2018-02-03T07:30:33.508Z,20.20
2018-02-03T07:33:00.205Z,18.17
2018-02-03T07:35:26.890Z,17.30
2018-02-03T07:37:53.522Z,17.95
2018-02-03T07:40:20.141Z,18.42
2018-02-03T07:42:46.870Z,18.58
2018-02-03T07:45:13.505Z,17.23
2018-02-03T07:47:40.124Z,16.45
2018-02-03T07:50:06.810Z,17.12
2018-02-03T07:52:33.438Z,16.58
2018-02-03T07:55:00.049Z,17.62
2018-02-03T07:57:26.669Z,16.87
2018-02-03T07:59:53.349Z,17.35
2018-02-03T08:02:19.970Z,16.50
2018-02-03T08:04:46.593Z,16.55
2018-02-03T08:07:13.230Z,17.98
2018-02-03T08:09:39.848Z,17.70
2018-02-03T08:12:06.538Z,18.05
2018-02-03T08:14:33.172Z,19.27
2018-02-03T08:16:59.806Z,17.65
2018-02-03T08:19:26.453Z,17.85
2018-02-03T08:21:53.066Z,18.00
2018-02-03T08:24:19.689Z,17.37
2018-02-03T08:26:46.318Z,17.48
2018-02-03T08:29:12.965Z,19.58
2018-02-03T08:31:39.578Z,19.75
2018-02-03T08:34:06.205Z,17.92
2018-02-03T08:36:32.808Z,16.02
2018-02-03T08:38:59.465Z,16.80
2018-02-03T08:41:26.101Z,16.45
2018-02-03T08:43:52.725Z,17.20
2018-02-03T08:46:19.381Z,18.25
2018-02-03T08:48:46.009Z,18.50
2018-02-03T08:51:12.625Z,19.10
2018-02-03T08:53:39.254Z,16.87
2018-02-03T08:56:05.948Z,19.30
2018-02-03T08:58:32.566Z,19.48
2018-02-03T09:00:59.182Z,17.08
2018-02-03T09:03:25.858Z,17.73
2018-02-03T09:05:52.469Z,18.35
2018-02-03T09:08:19.142Z,16.00
2018-02-03T09:10:45.761Z,16.98
2018-02-03T09:13:12.373Z,16.25
2018-02-03T09:15:39.000Z,17.35
2018-02-03T09:18:05.606Z,16.55
2018-02-03T09:20:32.234Z,14.57
2018-02-03T09:22:58.841Z,16.70
2018-02-03T09:25:25.804Z,14.68
2018-02-03T09:27:54.234Z,17.62
2018-02-03T09:30:20.893Z,14.63
2018-02-03T09:32:47.576Z,17.37
2018-02-03T09:35:14.560Z,17.50
2018-02-03T09:37:41.919Z,20.37
2018-02-03T09:40:08.775Z,17.45
2018-02-03T09:42:35.604Z,17.85
2018-02-03T09:45:02.487Z,16.92
2018-02-03T09:47:29.188Z,17.12
2018-02-03T09:49:55.844Z,16.70
2018-02-03T09:52:22.671Z,16.60
2018-02-03T09:54:49.416Z,17.30
2018-02-03T09:57:16.017Z,18.50
2018-02-03T09:59:42.649Z,17.92
2018-02-03T10:02:09.274Z,14.43
2018-02-03T10:04:36.038Z,19.50
2018-02-03T10:07:02.658Z,14.60
2018-02-03T10:09:29.312Z,18.02
2018-02-03T10:11:55.938Z,16.35
2018-02-03T10:14:22.570Z,18.92
2018-02-03T10:16:49.194Z,17.33
2018-02-03T10:19:15.806Z,19.08
2018-02-03T10:21:42.546Z,19.12
2018-02-03T10:24:09.242Z,15.80
2018-02-03T10:26:36.723Z,15.40
2018-02-03T10:29:03.365Z,18.60
2018-02-03T10:31:29.993Z,18.35
2018-02-03T10:33:56.605Z,18.55
2018-02-03T10:36:23.229Z,16.37
2018-02-03T10:38:49.853Z,17.30
2018-02-03T10:41:16.475Z,13.57
2018-02-03T10:43:43.251Z,13.30
2018-02-03T10:46:10.689Z,12.95
2018-02-03T10:48:37.338Z,12.52
2018-02-03T10:51:04.071Z,11.40
2018-02-03T10:53:30.869Z,12.13
2018-02-03T10:55:57.596Z,11.65
2018-02-03T10:58:24.587Z,12.13
2018-02-03T11:00:51.522Z,11.77
2018-02-03T11:03:18.481Z,11.38
2018-02-03T11:05:46.519Z,13.07
2018-02-03T11:08:13.220Z,12.05
2018-02-03T11:10:39.820Z,13.88
2018-02-03T11:13:06.983Z,17.75
2018-02-03T11:15:33.682Z,11.88
2018-02-03T11:18:00.304Z,11.32
2018-02-03T11:20:26.922Z,14.15
2018-02-03T11:22:53.596Z,12.65
2018-02-03T11:25:20.213Z,13.10
2018-02-03T11:27:46.838Z,10.95
2018-02-03T11:30:13.444Z,10.35
2018-02-03T11:32:40.200Z,13.75
2018-02-03T11:35:06.815Z,10.90
2018-02-03T11:37:34.605Z,10.38
2018-02-03T11:40:01.221Z,8.60
2018-02-03T11:42:27.839Z,12.23
2018-02-03T11:44:54.453Z,10.43
2018-02-03T11:47:21.062Z,10.60
2018-02-03T11:49:47.681Z,11.88
2018-02-03T11:52:14.293Z,17.73
2018-02-03T11:54:40.932Z,10.18
2018-02-03T11:57:07.548Z,10.25
2018-02-03T11:59:34.169Z,9.77
2018-02-03T12:02:00.769Z,9.00
2018-02-03T12:04:27.401Z,12.05
2018-02-03T12:06:54.011Z,10.70
2018-02-03T12:09:20.634Z,10.27
2018-02-03T12:11:47.255Z,10.98
2018-02-03T12:14:13.874Z,12.20
2018-02-03T12:16:40.625Z,11.85
2018-02-03T12:19:07.277Z,11.23
2018-02-03T12:21:33.966Z,12.70
2018-02-03T12:24:00.590Z,12.20
2018-02-03T12:26:27.206Z,10.82
2018-02-03T12:28:53.921Z,11.68
2018-02-03T12:31:20.537Z,11.15
2018-02-03T12:33:47.200Z,11.27
2018-02-03T12:36:13.813Z,11.63
2018-02-03T12:38:40.468Z,10.50
2018-02-03T12:41:07.057Z,11.73
2018-02-03T12:43:33.665Z,10.45
2018-02-03T12:46:00.359Z,11.98
2018-02-03T12:48:26.981Z,9.80
2018-02-03T12:50:53.606Z,9.23
2018-02-03T12:53:20.212Z,9.23
2018-02-03T12:55:46.905Z,9.65
2018-02-03T12:58:13.517Z,10.40
2018-02-03T13:00:40.456Z,10.65
2018-02-03T13:03:07.176Z,12.68
2018-02-03T13:05:33.875Z,9.65
2018-02-03T13:08:00.613Z,10.00
2018-02-03T13:10:27.315Z,10.50
2018-02-03T13:12:53.953Z,10.23
2018-02-03T13:15:20.635Z,10.82
2018-02-03T13:17:47.530Z,11.25
2018-02-03T13:20:14.220Z,10.90
2018-02-03T13:22:41.565Z,10.52
2018-02-03T13:25:08.238Z,12.68
2018-02-03T13:27:34.973Z,12.00
2018-02-03T13:30:01.619Z,11.77
2018-02-03T13:32:28.380Z,14.48
2018-02-03T13:34:55.046Z,12.37
2018-02-03T13:37:21.687Z,14.05
2018-02-03T13:39:48.448Z,11.35
2018-02-03T13:42:15.125Z,12.35
2018-02-03T13:44:41.870Z,13.18
2018-02-03T13:47:08.760Z,13.80
2018-02-03T13:49:35.493Z,17.37
2018-02-03T13:52:02.215Z,13.90
2018-02-03T13:54:28.880Z,14.65
2018-02-03T13:56:55.910Z,14.27
2018-02-03T13:59:22.645Z,15.75
2018-02-03T14:01:49.362Z,12.10
2018-02-03T14:04:16.089Z,12.35
2018-02-03T14:06:42.893Z,13.27
2018-02-03T14:09:09.616Z,11.30
2018-02-03T14:11:36.468Z,13.48
2018-02-03T14:14:03.212Z,10.70
2018-02-03T14:16:29.895Z,12.80
2018-02-03T14:18:56.696Z,13.90
2018-02-03T14:21:23.520Z,11.75
2018-02-03T14:24:07.042Z,12.30
2018-02-03T14:26:33.824Z,10.73
2018-02-03T14:29:00.498Z,11.50
2018-02-03T14:31:27.747Z,11.05
2018-02-03T14:33:54.873Z,12.10
2018-02-03T14:36:21.589Z,12.27
2018-02-03T14:38:48.318Z,11.88
2018-02-03T14:41:14.997Z,14.00
2018-02-03T14:43:41.699Z,13.02
2018-02-03T14:46:08.552Z,12.07
2018-02-03T14:48:35.353Z,12.45
2018-02-03T14:51:02.000Z,13.00
2018-02-03T14:53:28.715Z,12.13
2018-02-03T14:55:55.386Z,12.93
2018-02-03T14:58:22.598Z,13.82
2018-02-03T15:00:49.432Z,11.57
2018-02-03T15:03:16.260Z,11.95
2018-02-03T15:05:43.090Z,13.30
2018-02-03T15:08:09.787Z,19.02
2018-02-03T15:10:36.585Z,21.23
2018-02-03T15:13:03.444Z,15.23
2018-02-03T15:15:30.530Z,12.85
2018-02-03T15:17:57.234Z,18.05
2018-02-03T15:20:24.075Z,18.77
2018-02-03T15:22:50.797Z,12.15
2018-02-03T15:25:17.465Z,10.68
2018-02-03T15:27:44.265Z,12.07
2018-02-03T15:30:10.934Z,11.50
2018-02-03T15:32:37.776Z,13.10
2018-02-03T15:35:04.452Z,17.85
2018-02-03T15:37:31.468Z,13.65
2018-02-03T15:39:58.291Z,17.33
2018-02-03T15:42:24.965Z,15.80
2018-02-03T15:44:51.666Z,14.02
2018-02-03T15:47:18.531Z,11.40
2018-02-03T15:49:45.297Z,13.00
2018-02-03T15:52:12.242Z,10.40
2018-02-03T15:54:39.005Z,12.23
2018-02-03T15:57:05.923Z,13.25
2018-02-03T15:59:32.606Z,11.52
2018-02-03T16:01:59.354Z,10.82
2018-02-03T16:04:26.139Z,12.10
2018-02-03T16:06:52.837Z,10.63
2018-02-03T16:09:19.441Z,10.98
2018-02-03T16:11:46.066Z,14.43
2018-02-03T16:14:12.734Z,12.05
2018-02-03T16:16:39.357Z,13.73
2018-02-03T16:19:05.970Z,10.30
2018-02-03T16:21:32.593Z,11.77
2018-02-03T16:23:59.228Z,11.45
2018-02-03T16:26:25.845Z,12.02
2018-02-03T16:28:52.457Z,11.77
2018-02-03T16:31:19.148Z,12.25
2018-02-03T16:33:45.821Z,11.75
2018-02-03T16:36:12.434Z,12.70
2018-02-03T16:38:39.125Z,13.25
2018-02-03T16:41:05.770Z,14.07
2018-02-03T16:43:32.397Z,15.40
2018-02-03T16:45:59.041Z,13.40
2018-02-03T16:48:25.666Z,16.08
2018-02-03T16:50:52.317Z,14.00
2018-02-03T16:53:18.999Z,19.25
2018-02-03T16:55:45.702Z,22.30
2018-02-03T16:58:12.320Z,24.40
2018-02-03T17:00:38.942Z,38.30
2018-02-03T17:03:05.566Z,29.98
2018-02-03T17:05:32.299Z,23.12
2018-02-03T17:07:58.917Z,20.70
2018-02-03T17:10:25.530Z,17.65
2018-02-03T17:12:52.177Z,26.15
2018-02-03T17:15:18.824Z,23.90
2018-02-03T17:17:45.445Z,16.87
2018-02-03T17:20:12.057Z,16.08
2018-02-03T17:22:38.730Z,22.30
2018-02-03T17:25:05.369Z,25.55
2018-02-03T17:27:31.991Z,20.35
2018-02-03T17:29:58.614Z,48.42
2018-02-03T17:32:25.285Z,45.85
2018-02-03T17:34:51.905Z,39.72
2018-02-03T17:37:24.322Z,39.45
2018-02-03T17:39:50.932Z,38.75
2018-02-03T17:42:17.552Z,34.00
2018-02-03T17:44:44.383Z,21.98
2018-02-03T17:47:11.001Z,30.08
2018-02-03T17:49:37.629Z,55.05
2018-02-03T17:52:04.249Z,39.67
2018-02-03T17:54:30.985Z,43.55
2018-02-03T17:57:13.326Z,100.00
2018-02-03T17:59:40.029Z,78.12
2018-02-03T18:02:06.745Z,84.03
2018-02-03T18:04:33.390Z,60.85
2018-02-03T18:07:03.961Z,70.82
2018-02-03T18:09:30.719Z,62.22
2018-02-03T18:11:57.416Z,39.88
2018-02-03T18:14:24.050Z,48.97
2018-02-03T18:16:50.661Z,22.02
2018-02-03T18:19:17.343Z,23.10
2018-02-03T18:21:43.965Z,25.12
2018-02-03T18:24:10.613Z,22.35
2018-02-03T18:26:37.295Z,21.80
2018-02-03T18:29:03.901Z,22.33
2018-02-03T18:31:30.531Z,17.77
2018-02-03T18:33:57.141Z,16.05
2018-02-03T18:36:23.813Z,14.55
2018-02-03T18:38:50.416Z,16.00
2018-02-03T18:41:17.093Z,15.27
2018-02-03T18:43:43.770Z,15.82
2018-02-03T18:46:10.469Z,18.08
2018-02-03T18:48:37.147Z,18.00
2018-02-03T18:51:03.766Z,20.20
2018-02-03T18:53:30.385Z,18.90
2018-02-03T18:55:57.029Z,18.87
2018-02-03T18:58:23.657Z,19.60
2018-02-03T19:00:50.301Z,16.85
2018-02-03T19:03:16.928Z,16.45
2018-02-03T19:05:43.544Z,17.85
2018-02-03T19:08:10.216Z,16.85
2018-02-03T19:10:36.861Z,18.77
2018-02-03T19:13:03.602Z,20.52
2018-02-03T19:15:30.282Z,18.00
2018-02-03T19:17:56.983Z,19.05
2018-02-03T19:20:23.601Z,20.35
2018-02-03T19:22:50.233Z,17.25
2018-02-03T19:25:16.847Z,25.02
2018-02-03T19:27:43.469Z,18.65
2018-02-03T19:30:10.085Z,21.05
2018-02-03T19:32:36.716Z,22.05
2018-02-03T19:35:03.332Z,18.87
2018-02-03T19:37:29.957Z,19.02
2018-02-03T19:39:56.673Z,20.77
2018-02-03T19:42:23.414Z,18.90
2018-02-03T19:44:50.026Z,22.48
2018-02-03T19:47:16.641Z,23.98
2018-02-03T19:49:43.272Z,22.23
2018-02-03T19:52:09.970Z,25.15
2018-02-03T19:54:36.674Z,21.20
2018-02-03T19:57:03.294Z,19.35
2018-02-03T19:59:29.917Z,22.50
2018-02-03T20:01:56.533Z,20.80
2018-02-03T20:04:23.162Z,18.92
2018-02-03T20:06:49.805Z,19.40
2018-02-03T20:09:16.425Z,21.85
2018-02-03T20:11:43.037Z,22.35
2018-02-03T20:14:09.661Z,23.23
2018-02-03T20:16:36.277Z,20.80
2018-02-03T20:19:02.905Z,21.35
2018-02-03T20:21:29.526Z,22.65
2018-02-03T20:23:56.238Z,20.92
2018-02-03T20:26:22.848Z,20.02
2018-02-03T20:28:49.514Z,18.85
2018-02-03T20:31:16.125Z,18.45
2018-02-03T20:33:42.742Z,21.52
2018-02-03T20:36:09.366Z,22.23
2018-02-03T20:38:35.979Z,20.70
2018-02-03T20:41:02.605Z,20.77
2018-02-03T20:43:29.222Z,19.17
2018-02-03T20:45:55.890Z,18.92
2018-02-03T20:48:22.525Z,20.12
2018-02-03T20:50:49.266Z,20.40
2018-02-03T20:53:15.877Z,20.48
2018-02-03T20:55:42.514Z,20.77
2018-02-03T20:58:09.142Z,22.75
2018-02-03T21:00:35.770Z,25.85
2018-02-03T21:03:02.505Z,22.65
2018-02-03T21:05:29.125Z,21.10
2018-02-03T21:07:55.784Z,21.48
2018-02-03T21:10:22.481Z,20.62
2018-02-03T21:12:49.097Z,23.08
2018-02-03T21:15:15.761Z,23.92
2018-02-03T21:17:42.373Z,23.25
2018-02-03T21:20:09.005Z,23.80
2018-02-03T21:22:35.622Z,25.40
2018-02-03T21:25:02.237Z,21.90
2018-02-03T21:27:28.881Z,22.35
2018-02-03T21:29:55.491Z,25.45
2018-02-03T21:32:22.129Z,22.42
2018-02-03T21:34:48.745Z,26.30
2018-02-03T21:37:15.452Z,25.17
2018-02-03T21:39:42.095Z,28.87
2018-02-03T21:42:08.705Z,30.25
2018-02-03T21:44:35.317Z,29.83
2018-02-03T21:47:01.946Z,25.90
2018-02-03T21:49:28.608Z,23.75
2018-02-03T21:51:55.229Z,25.75
2018-02-03T21:54:21.846Z,26.92
2018-02-03T21:56:48.530Z,111.50
2018-02-03T21:59:15.145Z,23.50
2018-02-03T22:01:41.800Z,21.10
2018-02-03T22:04:08.492Z,21.75
2018-02-03T22:06:35.121Z,21.67
2018-02-03T22:09:01.734Z,21.90
2018-02-03T22:11:28.460Z,22.80
2018-02-03T22:13:55.096Z,24.73
2018-02-03T22:16:21.720Z,25.98
2018-02-03T22:18:48.342Z,25.17
2018-02-03T22:21:15.059Z,26.90
2018-02-03T22:23:41.682Z,43.35
2018-02-03T22:26:08.438Z,37.47
2018-02-03T22:28:35.144Z,29.08
2018-02-03T22:31:01.761Z,30.88
2018-02-03T22:33:28.389Z,28.48
2018-02-03T22:35:55.006Z,27.87
2018-02-03T22:38:21.693Z,28.98
2018-02-03T22:40:48.334Z,33.22
2018-02-03T22:43:15.081Z,25.70
2018-02-03T22:45:41.701Z,28.40
2018-02-03T22:48:08.330Z,32.30
2018-02-03T22:50:35.037Z,34.67
2018-02-03T22:53:01.666Z,34.70
2018-02-03T22:55:28.313Z,28.05
2018-02-03T22:57:55.054Z,29.58
2018-02-03T23:00:21.663Z,41.08
2018-02-03T23:02:53.956Z,27.00
2018-02-03T23:05:20.575Z,24.12
2018-02-03T23:07:47.185Z,24.15
2018-02-03T23:10:13.841Z,25.00
2018-02-03T23:12:40.477Z,25.80
2018-02-03T23:15:07.102Z,23.17
2018-02-03T23:17:33.717Z,24.23
2018-02-03T23:20:00.359Z,29.95
2018-02-03T23:22:26.974Z,28.12
2018-02-03T23:24:53.592Z,32.05
2018-02-03T23:27:20.208Z,24.87
2018-02-03T23:32:13.122Z,27.25
2018-02-03T23:37:05.995Z,30.52
2018-02-03T23:39:32.617Z,36.35
2018-02-03T23:41:59.338Z,30.00
2018-02-03T23:44:25.961Z,29.92
2018-02-03T23:46:52.573Z,26.33
2018-02-03T23:49:19.291Z,28.42
2018-02-03T23:51:45.905Z,28.67
2018-02-03T23:54:12.669Z,26.20
2018-02-03T23:56:39.293Z,25.15
2018-02-03T23:59:05.905Z,27.62
